Latest Coastal Weather Observations for Kalumburu

IDW60701

Issued at 8:32 pm WST Saturday 29 August 2015 (issued every 10 minutes, with the page automatically refreshed every 10 minutes)

About coastal observations | Map of coastal stations | Coastal observations for WA | Marine services | Other Formats
Station Details ID: 001019 Name: KALUMBURU Lat: -14.30 Lon: 126.65 Height: 23.0 m
Data from the previous 72 hours. | See also: Recent months at Kalumburu
Date/Time
WST
Temp

°C
Wind Pressure Rain
since 9am
mm
Weather Cloud Vis
km
Sea
Height
m
Swell
Dir
 
Speed
knots
Gust
knots
hPa Trend Height
m
Period
s
Dir
29/08:30pm 26.0 NW 4 6 1016.0 - 0.0 - - - - - - -
29/08:00pm 26.0 NNW 5 7 1015.8 - 0.0 - - - - - - -
29/07:30pm 26.0 NNW 5 7 1015.6 - 0.0 - - - - - - -
29/07:00pm 26.1 NNW 7 10 1015.0 - 0.0 - - - - - - -
29/06:30pm 26.2 NNW 7 11 1014.7 - 0.0 - - - - - - -
29/06:00pm 26.4 NNW 8 12 1014.2 - 0.0 - - - - - - -
29/05:30pm 26.8 NNW 9 13 1013.8 - 0.0 - - - - - - -
29/05:00pm 27.6 N 10 14 1013.4 - 0.0 - - - - - - -
29/04:30pm 28.8 NNW 10 14 1013.0 - 0.0 - - - - - - -
29/04:00pm 30.0 N 11 17 1012.6 - 0.0 - - - - - - -
29/03:30pm 30.2 NNW 11 15 1012.4 - 0.0 - - - - - - -
29/03:00pm 31.1 NNW 11 16 1012.3 - 0.0 - - - - - - -
29/02:30pm 31.8 NNW 10 15 1012.5 - 0.0 - - - - - - -
29/02:00pm 32.4 NNW 10 16 1012.8 - 0.0 - - - - - - -
29/01:30pm 31.8 N 12 18 1013.2 - 0.0 - - - - - - -
29/01:00pm 32.0 N 14 19 1013.6 - 0.0 - - - - - - -
29/12:30pm 33.6 NNW 10 15 1013.7 - 0.0 - - - - - - -
29/12:00pm 31.9 SE 4 7 1014.3 - 0.0 - - - - - - -
29/11:30am 32.6 N 7 11 1014.9 - 0.0 - - - - - - -
29/11:00am 32.5 ESE 6 11 1015.3 - 0.0 - - - - - - -
29/10:30am 32.4 SE 5 8 1016.0 - 0.0 - - - - - - -
29/10:00am 31.5 SE 7 11 1016.7 - 0.0 - - - - - - -
29/09:30am 31.0 W 4 7 1017.0 - 0.0 - - - - - - -
29/09:00am 29.8 S 4 5 1017.0 - 0.0 - - - - - - -
29/08:30am 28.5 SSW 5 8 1016.9 - 0.0 - - - - - - -
29/08:00am 27.4 S 6 9 1016.4 - 0.0 - - - - - - -
29/07:30am 26.3 S 5 7 1016.5 - 0.0 - - - - - - -
29/07:00am 25.1 S 3 4 1016.2 - 0.0 - - - - - - -
29/06:30am 21.9 CALM 0 0 1016.1 - 0.0 - - - - - - -
29/06:00am 20.7 CALM 0 0 1015.7 - 0.0 - - - - - - -
29/05:30am 20.2 CALM 0 0 1015.1 - 0.0 - - - - - - -
29/05:00am 20.1 CALM 0 0 1014.7 - 0.0 - - - - - - -
29/04:30am 19.9 CALM 0 1 1014.5 - 0.0 - - - - - - -
29/04:00am 20.1 CALM 0 0 1014.4 - 0.0 - - - - - - -
29/03:30am 20.1 CALM 0 0 1014.3 - 0.0 - - - - - - -
29/03:00am 20.6 CALM 0 0 1014.3 - 0.0 - - - - - - -
29/02:30am 20.5 CALM 0 0 1014.4 - 0.0 - - - - - - -
29/02:00am 20.7 CALM 0 0 1014.7 - 0.0 - - - - - - -
29/01:30am 21.1 CALM 0 0 1015.0 - 0.0 - - - - - - -
29/01:00am 21.1 CALM 0 0 1015.3 - 0.0 - - - - - - -
29/12:30am 21.3 CALM 0 0 1015.6 - 0.0 - - - - - - -
29/12:00am 21.5 CALM 0 0 1015.8 - 0.0 - - - - - - -
 
Date/Time
WST
Temp

°C
Wind Pressure Rain
since 9am
mm
Weather Cloud Vis
km
Sea
Height
m
Swell
Dir
 
Speed
knots
Gust
knots
hPa Trend Height
m
Period
s
Dir
28/11:30pm 21.3 CALM 0 0 1016.0 - 0.0 - - - - - - -
28/11:00pm 21.9 CALM 0 0 1016.0 - 0.0 - - - - - - -
28/10:30pm 22.4 CALM 0 0 1016.3 - 0.0 - - - - - - -
28/10:00pm 22.8 CALM 0 0 1016.5 - 0.0 - - - - - - -
28/09:30pm 23.1 CALM 0 0 1016.3 - 0.0 - - - - - - -
28/09:00pm 24.2 CALM 0 3 1016.2 - 0.0 - - - - - - -
28/08:30pm 24.5 NW 1 3 1016.0 - 0.0 - - - - - - -
28/08:00pm 26.0 NW 5 7 1015.8 - 0.0 - - - - - - -
28/07:30pm 26.2 WNW 4 7 1015.4 - 0.0 - - - - - - -
28/07:00pm 26.3 NNW 5 8 1014.8 - 0.0 - - - - - - -
28/06:30pm 26.7 NNW 7 9 1014.4 - 0.0 - - - - - - -
28/06:00pm 26.9 NNW 6 10 1014.0 - 0.0 - - - - - - -
28/05:30pm 27.1 NNW 9 13 1013.6 - 0.0 - - - - - - -
28/05:00pm 27.8 NNW 9 13 1013.2 - 0.0 - - - - - - -
28/04:30pm 28.7 NNW 9 14 1012.8 - 0.0 - - - - - - -
28/04:00pm 29.4 N 10 16 1012.5 - 0.0 - - - - - - -
28/03:30pm 30.2 NNW 9 13 1012.4 - 0.0 - - - - - - -
28/03:00pm 30.8 N 10 15 1012.5 - 0.0 - - - - - - -
28/02:30pm 31.2 N 10 16 1012.6 - 0.0 - - - - - - -
28/02:00pm 30.8 NNW 11 14 1012.8 - 0.0 - - - - - - -
28/01:30pm 31.2 N 12 17 1013.2 - 0.0 - - - - - - -
28/01:00pm 31.2 N 11 16 1013.7 - 0.0 - - - - - - -
28/12:30pm 31.4 N 11 16 1014.2 - 0.0 - - - - - - -
28/12:00pm 32.6 NNW 9 15 1014.7 - 0.0 - - - - - - -
28/11:30am 31.2 NNW 10 15 1015.1 - 0.0 - - - - - - -
28/11:00am 31.5 N 8 12 1015.6 - 0.0 - - - - - - -
28/10:30am 31.5 NE 5 10 1016.1 - 0.0 - - - - - - -
28/10:00am 30.5 NNE 5 8 1016.5 - 0.0 - - - - - - -
28/09:30am 29.8 NW 5 8 1016.7 - 0.0 - - - - - - -
28/09:00am 28.9 W 3 5 1016.9 - 0.0 - - - - - - -
28/08:30am 27.4 SW 4 6 1016.9 - 0.0 - - - - - - -
28/08:00am 26.5 SW 3 5 1016.8 - 0.0 - - - - - - -
28/07:30am 25.3 SSE 3 4 1016.3 - 0.0 - - - - - - -
28/07:00am 22.5 CALM 0 0 1016.2 - 0.0 - - - - - - -
28/06:30am 19.8 CALM 0 3 1015.9 - 0.0 - - - - - - -
28/06:00am 18.3 CALM 0 0 1015.6 - 0.0 - - - - - - -
28/05:30am 18.2 CALM 0 0 1015.3 - 0.0 - - - - - - -
28/05:00am 18.3 CALM 0 0 1014.9 - 0.0 - - - - - - -
28/04:30am 18.6 CALM 0 0 1014.5 - 0.0 - - - - - - -
28/04:00am 19.0 CALM 0 0 1014.3 - 0.0 - - - - - - -
28/03:30am 18.8 CALM 0 0 1014.2 - 0.0 - - - - - - -
28/03:00am 19.0 CALM 0 0 1014.2 - 0.0 - - - - - - -
28/02:30am 19.5 CALM 0 1 1014.3 - 0.0 - - - - - - -
28/02:00am 19.6 CALM 0 0 1014.2 - 0.0 - - - - - - -
28/01:30am 19.7 CALM 0 0 1014.3 - 0.0 - - - - - - -
28/01:00am 20.1 CALM 0 0 1014.4 - 0.0 - - - - - - -
28/12:30am 20.4 CALM 0 0 1014.7 - 0.0 - - - - - - -
28/12:00am 20.5 CALM 0 0 1014.8 - 0.0 - - - - - - -
 
Date/Time
WST
Temp

°C
Wind Pressure Rain
since 9am
mm
Weather Cloud Vis
km
Sea
Height
m
Swell
Dir
 
Speed
knots
Gust
knots
hPa Trend Height
m
Period
s
Dir
27/11:30pm 20.7 CALM 0 0 1015.2 - 0.0 - - - - - - -
27/11:00pm 21.3 CALM 0 0 1015.5 - 0.0 - - - - - - -
27/10:30pm 21.6 CALM 0 0 1015.7 - 0.0 - - - - - - -
27/10:00pm 22.1 CALM 0 3 1015.6 - 0.0 - - - - - - -
27/09:30pm 22.5 CALM 0 0 1015.7 - 0.0 - - - - - - -
27/09:00pm 23.3 CALM 0 0 1015.7 - 0.0 - - - - - - -
27/08:30pm 24.4 NW 3 4 1015.7 - 0.0 - - - - - - -
27/08:00pm 24.9 NNW 4 5 1015.6 - 0.0 - - - - - - -
27/07:30pm 25.5 NNW 4 6 1015.4 - 0.0 - - - - - - -
27/07:00pm 26.0 NNW 7 9 1015.0 - 0.0 - - - - - - -
27/06:30pm 26.1 NNW 6 9 1014.6 - 0.0 - - - - - - -
27/06:00pm 26.4 NNW 8 11 1014.2 - 0.0 - - - - - - -
27/05:30pm 26.7 N 8 12 1013.8 - 0.0 - - - - - - -
27/05:00pm 27.7 N 9 14 1013.5 - 0.0 - - - - - - -
27/04:30pm 28.4 N 11 16 1013.1 - 0.0 - - - - - - -
27/04:00pm 29.6 N 11 15 1012.9 - 0.0 - - - - - - -
27/03:30pm 29.9 NNW 13 19 1012.5 - 0.0 - - - - - - -
27/03:00pm 30.9 N 14 21 1012.3 - 0.0 - - - - - - -
27/02:30pm 32.5 N 14 20 1012.2 - 0.0 - - - - - - -
27/02:00pm 32.5 NNW 11 16 1012.3 - 0.0 - - - - - - -
27/01:30pm 33.6 NNW 9 13 1012.4 - 0.0 - - - - - - -
27/01:00pm 33.0 NW 10 14 1012.9 - 0.0 - - - - - - -
27/12:30pm 33.2 NNW 9 14 1013.2 - 0.0 - - - - - - -
27/12:00pm 32.2 NNW 8 11 1013.6 - 0.0 - - - - - - -
27/11:30am 33.0 N 6 12 1014.1 - 0.0 - - - - - - -
27/11:00am 31.9 NNW 6 11 1014.5 - 0.0 - - - - - - -
27/10:30am 31.4 NW 6 9 1015.1 - 0.0 - - - - - - -
27/10:00am 31.3 NNW 3 7 1015.6 - 0.0 - - - - - - -
27/09:30am 30.3 W 3 7 1016.0 - 0.0 - - - - - - -
27/09:00am 29.3 NNW 5 7 1016.2 - 0.0 - - - - - - -
27/08:30am 28.4 WSW 3 4 1016.2 - 0.0 - - - - - - -
27/08:00am 27.2 SSE 3 5 1016.1 - 0.0 - - - - - - -
27/07:30am 25.5 CALM 0 0 1015.8 - 0.0 - - - - - - -
27/07:00am 22.9 CALM 0 0 1015.5 - 0.0 - - - - - - -
27/06:30am 20.2 S 1 3 1015.1 - 0.0 - - - - - - -
27/06:00am 19.0 ENE 2 4 1014.8 - 0.0 - - - - - - -
27/05:30am 19.6 CALM 0 0 1014.5 - 0.0 - - - - - - -
27/05:00am 19.7 CALM 0 0 1014.2 - 0.0 - - - - - - -
27/04:30am 19.6 CALM 0 0 1014.0 - 0.0 - - - - - - -
27/04:00am 19.8 CALM 0 0 1013.8 - 0.0 - - - - - - -
27/03:30am 20.0 CALM 0 0 1013.9 - 0.0 - - - - - - -
27/03:00am 20.3 CALM 0 0 1013.8 - 0.0 - - - - - - -
27/02:30am 20.3 CALM 0 0 1013.7 - 0.0 - - - - - - -
27/02:00am 20.6 CALM 0 0 1013.6 - 0.0 - - - - - - -
27/01:30am 20.7 CALM 0 0 1013.7 - 0.0 - - - - - - -
27/01:00am 20.9 CALM 0 0 1013.9 - 0.0 - - - - - - -
27/12:30am 21.0 CALM 0 0 1014.2 - 0.0 - - - - - - -
27/12:00am 21.3 CALM 0 0 1014.4 - 0.0 - - - - - - -
 
Date/Time
WST
Temp

°C
Wind Pressure Rain
since 9am
mm
Weather Cloud Vis
km
Sea
Height
m
Swell
Dir
 
Speed
knots
Gust
knots
hPa Trend Height
m
Period
s
Dir
26/11:30pm 21.5 CALM 0 0 1014.7 - 0.0 - - - - - - -
26/11:00pm 22.5 CALM 0 0 1014.9 - 0.0 - - - - - - -
26/10:30pm 22.8 CALM 0 0 1014.8 - 0.0 - - - - - - -
26/10:00pm 22.7 CALM 0 0 1014.7 - 0.0 - - - - - - -
26/09:30pm 23.5 N 2 3 1014.7 - 0.0 - - - - - - -
26/09:00pm 24.2 CALM 0 3 1014.8 - 0.0 - - - - - - -

Other Formats:

Comma delimited format used in spreadsheet applications
http://www.bom.gov.au/fwo/IDW60701/IDW60701.94100.axf

JavaScript Object Notation format (JSON) in row-major order
http://www.bom.gov.au/fwo/IDW60701/IDW60701.94100.json